Time;durP1;ratioP1;P1;durP2;ratioP2;P2;SDS_P1;SDS_P2;PMS_P1;PMS_P2;Temp;Humidity;BMP_temperature;BMP_pressure;BME280_temperature;BME280_humidity;BME280_pressure;Samples;Min_cycle;Max_cycle;Signal;HPM_P1;HPM_P2
2021/08/12 00:02:24;;;;;;;14.20;8.80;;;;;;;22.37;100.00;99608.48;1778502;80;21085;-60
2021/08/12 00:04:51;;;;;;;18.63;9.83;;;;;;;22.37;100.00;99615.12;1787069;80;21381;-62
2021/08/12 00:07:20;;;;;;;16.27;9.53;;;;;;;22.42;100.00;99611.63;1785364;80;21460;-61
2021/08/12 00:09:47;;;;;;;19.70;13.17;;;;;;;22.41;100.00;99602.88;1784539;80;21085;-60
2021/08/12 00:12:13;;;;;;;20.00;15.23;;;;;;;22.42;100.00;99593.83;1782408;80;20986;-60
2021/08/12 00:14:40;;;;;;;17.80;15.97;;;;;;;22.34;100.00;99597.86;1788872;80;21769;-62
2021/08/12 00:17:06;;;;;;;15.83;12.70;;;;;;;22.23;100.00;99603.52;1789495;79;20998;-62
2021/08/12 00:19:33;;;;;;;13.07;9.30;;;;;;;22.14;100.00;99602.00;1787947;80;21074;-62
2021/08/12 00:21:59;;;;;;;13.13;8.80;;;;;;;22.06;100.00;99602.02;1789072;79;21152;-60
2021/08/12 00:24:25;;;;;;;14.50;8.60;;;;;;;22.01;100.00;99596.75;1786507;79;21418;-62
2021/08/12 00:26:52;;;;;;;11.17;8.00;;;;;;;22.02;100.00;99598.33;1788749;79;21578;-62
2021/08/12 00:29:18;;;;;;;12.50;8.90;;;;;;;22.05;100.00;99611.59;1786233;80;20974;-61
2021/08/12 00:31:45;;;;;;;12.43;8.20;;;;;;;22.09;100.00;99613.95;1789085;80;20876;-61
2021/08/12 00:34:11;;;;;;;15.77;12.67;;;;;;;22.09;100.00;99617.39;1750816;80;21816;-60
2021/08/12 00:36:38;;;;;;;18.20;14.67;;;;;;;22.13;100.00;99627.47;1786819;80;21013;-62
2021/08/12 00:39:06;;;;;;;20.67;15.27;;;;;;;22.07;100.00;99624.83;1786168;80;21066;-62
2021/08/12 00:41:38;;;;;;;21.50;15.97;;;;;;;21.96;100.00;99627.27;1787233;79;21461;-61
2021/08/12 00:44:04;;;;;;;18.33;15.70;;;;;;;21.80;100.00;99628.42;1786711;79;21485;-61
2021/08/12 00:46:31;;;;;;;17.77;15.30;;;;;;;21.69;100.00;99634.30;1787135;79;21099;-61
2021/08/12 00:48:59;;;;;;;19.60;15.53;;;;;;;21.59;100.00;99633.82;1788296;80;21037;-60
2021/08/12 00:51:27;;;;;;;16.67;14.33;;;;;;;21.50;100.00;99630.66;1756380;80;21464;-61
2021/08/12 00:53:54;;;;;;;23.97;15.43;;;;;;;21.43;100.00;99625.63;1758611;80;20974;-62
2021/08/12 00:56:20;;;;;;;21.03;16.63;;;;;;;21.37;100.00;99627.52;1782786;80;21551;-61
2021/08/12 00:58:47;;;;;;;18.33;15.73;;;;;;;21.30;100.00;99627.52;1785317;79;21535;-61
2021/08/12 01:01:14;;;;;;;21.27;15.40;;;;;;;21.22;100.00;99628.06;1787205;80;20939;-61
2021/08/12 01:03:41;;;;;;;18.07;14.77;;;;;;;21.18;100.00;99628.34;1778278;79;21122;-61
2021/08/12 01:06:07;;;;;;;20.60;15.93;;;;;;;21.12;100.00;99637.60;1682903;85;21054;-60
2021/08/12 01:09:07;;;;;;;15.90;14.23;;;;;;;21.12;100.00;99634.95;1700653;83;22415;-61
2021/08/12 01:11:47;;;;;;;20.07;15.80;;;;;;;21.11;100.00;99637.88;1701503;82;21796;-61
2021/08/12 01:14:37;;;;;;;19.50;14.80;;;;;;;21.10;100.00;99637.09;1706259;83;21536;-61
2021/08/12 01:17:07;;;;;;;17.23;12.98;;;;;;;21.10;100.00;99637.09;1711836;83;21014;-60
2021/08/12 01:20:16;;;;;;;13.93;12.40;;;;;;;21.09;100.00;99636.02;1713339;83;21010;-61
2021/08/12 01:22:47;;;;;;;13.83;11.83;;;;;;;21.12;100.00;99636.81;1691843;83;21497;-59
2021/08/12 01:25:22;;;;;;;16.80;12.45;;;;;;;21.19;100.00;99630.70;1708206;83;21139;-63
2021/08/12 01:27:51;;;;;;;15.37;11.20;;;;;;;21.27;100.00;99630.69;1708637;83;21108;-61
2021/08/12 01:30:18;;;;;;;14.67;10.57;;;;;;;21.33;100.00;99632.31;1696662;83;20976;-61
2021/08/12 01:33:02;;;;;;;16.37;10.57;;;;;;;21.41;100.00;99631.75;1700383;83;21371;-62
2021/08/12 01:35:31;;;;;;;13.27;9.27;;;;;;;21.49;100.00;99623.23;1694301;83;20967;-61
2021/08/12 01:38:03;;;;;;;20.23;10.23;;;;;;;21.58;100.00;99619.48;1667323;83;21161;-59
2021/08/12 01:40:32;;;;;;;17.23;11.37;;;;;;;21.59;100.00;99611.78;1699633;83;21077;-61
2021/08/12 01:43:01;;;;;;;13.77;11.00;;;;;;;21.67;100.00;99613.90;1698385;83;21067;-61
2021/08/12 01:45:28;;;;;;;14.53;10.40;;;;;;;21.75;100.00;99613.86;1690673;83;20967;-61
2021/08/12 01:47:54;;;;;;;15.27;10.67;;;;;;;21.80;100.00;99605.88;1695639;83;21139;-60
2021/08/12 01:50:22;;;;;;;15.37;9.20;;;;;;;21.84;100.00;99606.38;1690533;83;21194;-59
2021/08/12 01:52:50;;;;;;;12.40;9.83;;;;;;;21.92;100.00;99614.83;1692471;83;21454;-59
2021/08/12 01:55:21;;;;;;;12.00;9.40;;;;;;;21.92;100.00;99617.48;1691531;83;21090;-60
2021/08/12 01:57:49;;;;;;;15.60;10.18;;;;;;;21.96;100.00;99623.30;1693222;83;21015;-60
2021/08/12 02:00:17;;;;;;;12.83;11.23;;;;;;;21.92;100.00;99620.93;1695620;83;20908;-59
2021/08/12 02:02:46;;;;;;;15.23;11.63;;;;;;;21.93;100.00;99618.52;1684583;83;21158;-59
2021/08/12 02:05:14;;;;;;;17.43;12.67;;;;;;;21.89;100.00;99617.48;1734618;82;20999;-60
2021/08/12 02:07:46;;;;;;;17.43;13.10;;;;;;;21.84;100.00;99622.30;1743848;82;21140;-61
2021/08/12 02:10:14;;;;;;;15.43;13.13;;;;;;;21.78;100.00;99626.05;1743567;81;21121;-59
2021/08/12 02:12:41;;;;;;;17.70;13.20;;;;;;;21.71;100.00;99634.05;1741718;82;21520;-61
2021/08/12 02:15:09;;;;;;;15.20;13.47;;;;;;;21.68;100.00;99634.05;1738083;82;21145;-60
2021/08/12 02:17:36;;;;;;;18.53;13.33;;;;;;;21.66;100.00;99632.19;1742705;81;21069;-60
2021/08/12 02:20:07;;;;;;;15.50;13.20;;;;;;;21.65;100.00;99632.47;1712422;83;21054;-62
2021/08/12 02:23:01;;;;;;;15.50;13.00;;;;;;;21.64;100.00;99629.56;1744162;81;21497;-61
2021/08/12 02:25:34;;;;;;;15.47;12.57;;;;;;;21.65;100.00;99636.45;1714000;83;21026;-61
2021/08/12 02:28:05;;;;;;;20.10;12.90;;;;;;;21.62;100.00;99635.12;1744328;81;21116;-62
2021/08/12 02:30:34;;;;;;;18.87;11.93;;;;;;;21.54;100.00;99638.33;1751431;81;21419;-62
2021/08/12 02:33:00;;;;;;;13.23;11.33;;;;;;;21.52;100.00;99634.64;1742933;82;21000;-60
2021/08/12 02:35:28;;;;;;;13.20;10.23;;;;;;;21.54;100.00;99632.50;1711800;83;21033;-61
2021/08/12 02:37:56;;;;;;;15.00;9.20;;;;;;;21.56;100.00;99633.03;1749280;81;22315;-61
2021/08/12 02:40:22;;;;;;;12.83;9.37;;;;;;;21.61;100.00;99638.31;1710037;83;21552;-61
2021/08/12 02:42:50;;;;;;;14.10;10.07;;;;;;;21.61;100.00;99642.28;1740566;81;21011;-62
2021/08/12 02:45:16;;;;;;;30.30;11.63;;;;;;;21.67;100.00;99646.23;1713279;83;21024;-63
2021/08/12 02:47:43;;;;;;;17.70;9.27;;;;;;;21.73;100.00;99652.58;1743306;81;21081;-60
2021/08/12 02:50:10;;;;;;;14.67;10.60;;;;;;;21.77;100.00;99647.53;1742816;82;21088;-61
2021/08/12 02:52:37;;;;;;;16.77;12.67;;;;;;;21.81;100.00;99654.67;1749339;81;22076;-61
2021/08/12 02:55:05;;;;;;;14.13;11.67;;;;;;;21.85;100.00;99658.36;1712158;83;20995;-60
2021/08/12 02:57:33;;;;;;;17.13;12.50;;;;;;;21.85;100.00;99656.25;1709337;83;20972;-61
2021/08/12 02:59:59;;;;;;;15.00;11.60;;;;;;;21.97;100.00;99668.69;1722620;82;21068;-61
2021/08/12 03:02:26;;;;;;;16.30;11.53;;;;;;;21.98;100.00;99672.13;1693620;82;21294;-61
2021/08/12 03:04:53;;;;;;;12.17;10.13;;;;;;;21.95;100.00;99680.09;1753227;81;21743;-61
2021/08/12 03:07:20;;;;;;;13.13;10.40;;;;;;;22.02;100.00;99691.75;1714130;83;21670;-61
2021/08/12 03:09:48;;;;;;;12.97;9.40;;;;;;;22.04;100.00;99687.73;1751687;81;22263;-61
2021/08/12 03:12:16;;;;;;;14.90;9.90;;;;;;;22.03;100.00;99688.81;1713108;82;21122;-60
2021/08/12 03:14:42;;;;;;;13.83;8.93;;;;;;;22.04;100.00;99689.60;1752265;81;21015;-61
2021/08/12 03:17:12;;;;;;;10.90;8.40;;;;;;;22.08;100.00;99687.45;1714399;83;21227;-61
2021/08/12 03:19:40;;;;;;;10.53;7.53;;;;;;;22.20;100.00;99681.05;1752107;81;21097;-62
2021/08/12 03:22:09;;;;;;;14.10;8.17;;;;;;;22.27;100.00;99677.57;1746678;81;20994;-61
2021/08/12 03:24:42;;;;;;;8.83;6.83;;;;;;;22.33;100.00;99680.47;1717489;81;21054;-60
2021/08/12 03:27:13;;;;;;;13.37;7.53;;;;;;;22.33;100.00;99683.13;1752703;80;20987;-61
2021/08/12 03:29:40;;;;;;;12.30;7.62;;;;;;;22.37;100.00;99682.83;1747392;82;21823;-61
2021/08/12 03:32:07;;;;;;;11.33;6.80;;;;;;;22.48;100.00;99688.34;1747641;80;20979;-60
2021/08/12 03:34:35;;;;;;;10.47;6.83;;;;;;;22.56;100.00;99685.09;1748358;80;21093;-60
2021/08/12 03:37:03;;;;;;;17.23;7.87;;;;;;;22.70;100.00;99690.59;1752215;81;21050;-61
2021/08/12 03:39:30;;;;;;;14.17;9.23;;;;;;;22.78;100.00;99687.87;1716930;82;21466;-59
2021/08/12 03:41:58;;;;;;;16.10;11.33;;;;;;;22.90;100.00;99688.84;1752205;81;21144;-60
2021/08/12 03:44:25;;;;;;;16.90;11.70;;;;;;;22.92;100.00;99697.34;1715485;82;20995;-60
2021/08/12 03:46:52;;;;;;;16.57;10.47;;;;;;;23.00;100.00;99695.44;1749735;81;22502;-60
2021/08/12 03:49:18;;;;;;;14.00;10.10;;;;;;;23.04;100.00;99693.81;1715891;82;21118;-60
2021/08/12 03:51:45;;;;;;;13.27;10.63;;;;;;;23.03;100.00;99699.67;1752472;81;20942;-60
2021/08/12 03:54:12;;;;;;;15.77;11.60;;;;;;;23.03;100.00;99702.84;1716820;82;21834;-59
2021/08/12 03:56:38;;;;;;;18.37;12.03;;;;;;;23.08;100.00;99699.37;1752699;81;21533;-59
2021/08/12 03:59:05;;;;;;;24.23;18.77;;;;;;;23.13;100.00;99700.64;1716509;82;21454;-61
2021/08/12 04:01:32;;;;;;;20.97;15.40;;;;;;;23.20;100.00;99702.44;1751266;81;21519;-59
2021/08/12 04:03:59;;;;;;;21.13;14.47;;;;;;;23.27;100.00;99705.56;1754675;80;20986;-60
2021/08/12 04:06:27;;;;;;;23.90;17.50;;;;;;;23.34;100.00;99703.37;1725176;81;21146;-59
2021/08/12 04:08:54;;;;;;;29.73;20.90;;;;;;;23.57;100.00;99703.14;1755083;81;21024;-60
2021/08/12 04:11:21;;;;;;;29.20;19.47;;;;;;;23.82;100.00;99700.75;1755963;81;21108;-59
2021/08/12 04:13:48;;;;;;;18.37;11.43;;;;;;;23.99;100.00;99699.75;1755919;81;21515;-60
2021/08/12 04:16:14;;;;;;;15.33;9.90;;;;;;;24.16;100.00;99693.14;1756121;81;21152;-60
2021/08/12 04:18:41;;;;;;;17.83;8.80;;;;;;;24.28;100.00;99697.50;1755821;81;21142;-58
2021/08/12 04:21:08;;;;;;;14.23;8.83;;;;;;;24.40;100.00;99698.46;1755115;81;20954;-59
2021/08/12 04:23:34;;;;;;;15.33;9.20;;;;;;;24.53;100.00;99713.71;1760133;80;20986;-59
2021/08/12 04:26:03;;;;;;;13.93;8.93;;;;;;;24.64;100.00;99712.48;1756995;80;20970;-59
2021/08/12 04:28:30;;;;;;;18.83;13.40;;;;;;;24.76;100.00;99716.03;1758459;80;20998;-59
2021/08/12 04:30:57;;;;;;;19.77;15.60;;;;;;;24.89;100.00;99727.30;1759166;80;21079;-59
2021/08/12 04:33:23;;;;;;;26.03;15.17;;;;;;;24.99;100.00;99734.33;1749982;80;20974;-60
2021/08/12 04:35:50;;;;;;;19.43;12.83;;;;;;;25.05;100.00;99731.84;1752892;81;20969;-59
2021/08/12 04:38:16;;;;;;;18.37;13.10;;;;;;;25.08;100.00;99736.60;1751038;80;20930;-60
2021/08/12 04:40:43;;;;;;;18.00;10.10;;;;;;;25.16;100.00;99734.63;1749103;81;20969;-59
2021/08/12 04:43:10;;;;;;;12.13;8.10;;;;;;;25.17;100.00;99738.87;1749339;81;21109;-58
2021/08/12 04:45:37;;;;;;;15.13;8.20;;;;;;;25.26;100.00;99738.19;1750089;81;20887;-60
2021/08/12 04:48:05;;;;;;;16.23;7.77;;;;;;;25.38;100.00;99737.98;1750070;81;21210;-61
2021/08/12 04:50:38;;;;;;;13.73;7.60;;;;;;;25.53;100.00;99732.89;1750083;81;20942;-61
2021/08/12 04:53:05;;;;;;;13.00;7.30;;;;;;;25.68;100.00;99736.64;1749901;81;21519;-61
2021/08/12 04:55:34;;;;;;;13.10;7.10;;;;;;;25.73;100.00;99739.20;1749432;81;22364;-62
2021/08/12 04:58:01;;;;;;;12.77;7.63;;;;;;;25.89;100.00;99746.40;1748341;81;21152;-62
2021/08/12 05:00:27;;;;;;;13.97;7.27;;;;;;;25.98;100.00;99743.03;1750117;81;20974;-62
2021/08/12 05:02:54;;;;;;;14.03;7.67;;;;;;;26.02;100.00;99738.12;1743082;81;20990;-61
2021/08/12 05:05:20;;;;;;;9.10;6.17;;;;;;;26.06;100.00;99736.98;1741816;82;20998;-63
2021/08/12 05:07:50;;;;;;;13.63;6.87;;;;;;;26.11;100.00;99738.23;1740327;80;20981;-63
2021/08/12 05:10:16;;;;;;;12.93;7.10;;;;;;;26.10;100.00;99735.30;1742848;80;21128;-64
2021/08/12 05:12:45;;;;;;;11.53;6.20;;;;;;;26.14;100.00;99737.64;1721676;81;20967;-62
2021/08/12 05:15:12;;;;;;;10.50;7.20;;;;;;;26.16;100.00;99733.56;1744277;82;21030;-61
2021/08/12 05:17:38;;;;;;;11.03;6.83;;;;;;;26.23;100.00;99735.84;1730677;81;21950;-63
2021/08/12 05:20:06;;;;;;;13.23;6.67;;;;;;;26.25;100.00;99739.53;1742121;82;21228;-61
2021/08/12 05:22:33;;;;;;;11.03;6.73;;;;;;;26.26;100.00;99737.13;1744570;80;22018;-62
2021/08/12 05:24:59;;;;;;;13.23;7.37;;;;;;;26.25;100.00;99740.32;1718840;81;21010;-58
2021/08/12 05:27:26;;;;;;;14.50;7.27;;;;;;;26.25;100.00;99736.31;1723733;81;21533;-64
2021/08/12 05:29:54;;;;;;;15.03;7.53;;;;;;;26.28;100.00;99742.39;1741461;82;21476;-61
2021/08/12 05:32:20;;;;;;;10.77;6.73;;;;;;;26.29;100.00;99737.32;1744343;80;21148;-62
2021/08/12 05:34:47;;;;;;;13.30;7.33;;;;;;;26.34;100.00;99733.19;1728894;81;21097;-64
2021/08/12 05:37:13;;;;;;;9.07;6.63;;;;;;;26.46;100.00;99734.58;1746935;82;20999;-61
2021/08/12 05:39:41;;;;;;;13.27;6.83;;;;;;;26.63;100.00;99738.20;1744287;80;21151;-60
2021/08/12 05:42:08;;;;;;;12.73;6.80;;;;;;;26.77;100.00;99738.12;1729302;82;21074;-60
2021/08/12 05:44:36;;;;;;;11.00;6.63;;;;;;;26.90;100.00;99737.84;1746913;82;21553;-60
2021/08/12 05:47:03;;;;;;;11.67;6.37;;;;;;;27.09;100.00;99736.31;1748095;82;20977;-60
2021/08/12 05:49:30;;;;;;;12.30;6.10;;;;;;;27.30;100.00;99734.72;1716172;83;20858;-61
2021/08/12 05:51:57;;;;;;;8.63;5.63;;;;;;;27.52;100.00;99741.91;1716250;82;21072;-60
2021/08/12 05:54:23;;;;;;;13.13;5.70;;;;;;;27.74;100.00;99741.09;1730796;82;21073;-60
2021/08/12 05:56:50;;;;;;;10.58;5.65;;;;;;;27.96;100.00;99737.54;1748052;82;21059;-60
2021/08/12 05:59:17;;;;;;;14.13;6.28;;;;;;;28.17;100.00;99746.32;1729658;81;21018;-61
2021/08/12 06:01:44;;;;;;;8.80;5.62;;;;;;;28.45;100.00;99749.00;1740990;80;21050;-61
2021/08/12 06:04:12;;;;;;;12.15;6.12;;;;;;;28.69;100.00;99739.14;1736399;82;21661;-60
2021/08/12 06:06:39;;;;;;;11.95;6.33;;;;;;;28.97;100.00;99740.13;1752539;80;21524;-60
2021/08/12 06:09:07;;;;;;;18.20;6.03;;;;;;;29.22;100.00;99743.34;1748265;80;22273;-59
2021/08/12 06:11:36;;;;;;;10.85;5.42;;;;;;;29.48;100.00;99743.83;1718974;83;21562;-58
2021/08/12 06:14:04;;;;;;;11.25;5.87;;;;;;;29.69;100.00;99741.23;1744278;80;21075;-60
2021/08/12 06:16:31;;;;;;;7.92;5.30;;;;;;;29.87;97.37;99741.94;1744334;80;20995;-59
2021/08/12 06:19:00;;;;;;;12.25;6.10;;;;;;;30.01;94.34;99739.25;1751904;81;21594;-62
2021/08/12 06:21:28;;;;;;;13.55;6.22;;;;;;;30.28;90.90;99738.55;1755900;80;21017;-61
2021/08/12 06:23:57;;;;;;;18.65;7.65;;;;;;;30.28;90.90;99738.55;1723730;82;21016;-61
2021/08/12 06:26:24;;;;;;;13.93;6.20;;;;;;;30.44;88.56;99736.84;1754829;80;21045;-60
2021/08/12 06:28:52;;;;;;;11.50;6.05;;;;;;;30.55;85.99;99735.88;1754843;81;21321;-63
2021/08/12 06:31:20;;;;;;;12.65;5.75;;;;;;;30.64;84.76;99747.34;1759628;80;20938;-62
2021/08/12 06:33:47;;;;;;;10.48;5.85;;;;;;;30.63;84.65;99752.51;1751887;80;21497;-64
2021/08/12 06:36:14;;;;;;;14.45;6.30;;;;;;;30.64;82.23;99751.38;1758170;80;21090;-64
2021/08/12 06:38:42;;;;;;;15.20;6.60;;;;;;;30.61;83.92;99754.75;1736785;81;21082;-64
2021/08/12 06:41:09;;;;;;;16.93;6.83;;;;;;;30.50;88.23;99752.23;1755167;81;20994;-63
2021/08/12 06:43:38;;;;;;;14.15;6.22;;;;;;;30.41;88.19;99760.91;1759565;80;20977;-62
2021/08/12 06:46:04;;;;;;;13.70;5.50;;;;;;;30.40;86.60;99766.06;1753568;80;21136;-62
2021/08/12 06:48:35;;;;;;;10.65;5.70;;;;;;;30.33;87.00;99764.45;1737637;81;21101;-62
2021/08/12 06:51:03;;;;;;;14.75;6.60;;;;;;;30.27;83.01;99770.03;1755241;81;21507;-63
2021/08/12 06:53:29;;;;;;;12.85;6.35;;;;;;;30.18;84.71;99771.97;1754546;80;20949;-61
2021/08/12 06:55:57;;;;;;;14.43;5.95;;;;;;;30.13;88.97;99765.42;1759452;80;21068;-63
2021/08/12 06:58:24;;;;;;;11.33;6.08;;;;;;;30.12;91.67;99761.70;1736109;81;22712;-63
2021/08/12 07:00:53;;;;;;;16.45;6.12;;;;;;;30.00;93.97;99759.71;1755297;81;21480;-64
2021/08/12 07:03:21;;;;;;;10.93;5.70;;;;;;;30.01;93.99;99765.34;1742936;80;22424;-60
2021/08/12 07:05:47;;;;;;;9.93;5.30;;;;;;;30.01;93.99;99765.34;1706114;82;20906;-63
2021/08/12 07:08:14;;;;;;;14.33;5.45;;;;;;;30.04;89.87;99763.32;1711476;82;21161;-63
2021/08/12 07:10:42;;;;;;;11.68;5.87;;;;;;;30.10;89.60;99770.09;1730254;82;21109;-64
2021/08/12 07:13:09;;;;;;;10.05;4.85;;;;;;;30.10;89.60;99770.09;1730627;82;21025;-63
2021/08/12 07:15:38;;;;;;;11.18;5.25;;;;;;;30.15;82.13;99772.58;1731197;81;21555;-64
2021/08/12 07:18:07;;;;;;;11.30;5.85;;;;;;;30.18;84.63;99777.91;1730688;81;21293;-61
2021/08/12 07:20:37;;;;;;;7.53;4.50;;;;;;;30.25;87.65;99780.31;1712436;83;21671;-63
2021/08/12 07:23:06;;;;;;;9.43;5.58;;;;;;;30.24;77.79;99778.74;1730866;82;20993;-63
2021/08/12 07:25:33;;;;;;;10.00;5.22;;;;;;;30.25;77.28;99783.00;1732022;82;20935;-62
2021/08/12 07:28:00;;;;;;;15.43;4.80;;;;;;;30.21;73.95;99782.08;1708774;83;21185;-63
2021/08/12 07:30:27;;;;;;;11.48;5.47;;;;;;;30.27;70.68;99777.31;1731538;82;21070;-63
2021/08/12 07:32:53;;;;;;;10.23;4.78;;;;;;;30.27;68.20;99779.44;1729638;82;21113;-64
2021/08/12 07:35:22;;;;;;;7.35;4.20;;;;;;;30.27;70.31;99778.66;1737141;81;21153;-62
2021/08/12 07:37:49;;;;;;;12.50;4.83;;;;;;;30.31;67.38;99780.92;1711579;81;20927;-60
2021/08/12 07:40:17;;;;;;;11.15;4.90;;;;;;;30.33;65.04;99783.27;1731997;82;20971;-60
2021/08/12 07:42:44;;;;;;;11.25;5.00;;;;;;;30.30;63.66;99785.48;1730742;82;21148;-62
2021/08/12 07:45:11;;;;;;;12.05;4.65;;;;;;;30.32;65.12;99783.05;1710987;82;21532;-61
2021/08/12 07:47:38;;;;;;;13.28;5.20;;;;;;;30.50;65.40;99793.92;1731275;82;21154;-60
2021/08/12 07:50:11;;;;;;;11.70;5.72;;;;;;;30.50;65.40;99793.92;1730389;81;21029;-62
2021/08/12 07:52:39;;;;;;;9.75;5.05;;;;;;;30.61;59.79;99796.45;1725505;81;20997;-62
2021/08/12 07:55:08;;;;;;;8.28;4.65;;;;;;;30.57;61.27;99794.16;1709264;82;21090;-62
2021/08/12 07:57:35;;;;;;;8.75;5.00;;;;;;;30.62;62.04;99800.70;1740578;81;21046;-61
2021/08/12 08:00:01;;;;;;;9.15;5.03;;;;;;;30.70;62.31;99803.10;1740293;81;22497;-63
2021/08/12 08:02:45;;;;;;;12.23;5.60;;;;;;;30.70;58.82;99794.47;1716109;81;21042;-61
2021/08/12 08:05:18;;;;;;;9.88;5.60;;;;;;;30.63;58.49;99792.86;1718109;81;21019;-61
2021/08/12 08:07:50;;;;;;;6.92;4.70;;;;;;;30.67;57.47;99795.68;1744634;80;20970;-61
2021/08/12 08:10:18;;;;;;;10.93;5.35;;;;;;;30.80;57.14;99793.86;1748182;81;21038;-61
2021/08/12 08:12:45;;;;;;;10.28;4.42;;;;;;;30.99;58.10;99796.88;1716790;81;21167;-60
2021/08/12 08:15:14;;;;;;;7.72;4.67;;;;;;;31.26;55.63;99798.98;1747923;81;21554;-61
2021/08/12 08:17:40;;;;;;;8.93;5.17;;;;;;;31.52;54.07;99798.48;1710246;81;21137;-61
2021/08/12 08:20:10;;;;;;;7.92;4.97;;;;;;;31.77;52.35;99800.66;1748881;80;21572;-61
2021/08/12 08:22:37;;;;;;;7.75;4.90;;;;;;;31.98;51.67;99797.33;1716764;81;21122;-59
2021/08/12 08:25:06;;;;;;;6.87;4.83;;;;;;;32.20;51.65;99799.56;1743917;80;21209;-58
2021/08/12 08:27:33;;;;;;;12.37;5.28;;;;;;;32.52;51.24;99799.73;1707976;81;21070;-60
2021/08/12 08:30:02;;;;;;;8.75;4.95;;;;;;;32.85;47.28;99797.40;1753327;80;22022;-59
2021/08/12 08:32:36;;;;;;;9.35;5.33;;;;;;;32.97;48.37;99800.06;1753120;80;21473;-61
2021/08/12 08:35:03;;;;;;;11.60;5.37;;;;;;;33.32;46.14;99797.52;1746836;80;21054;-62
2021/08/12 08:37:30;;;;;;;11.57;5.75;;;;;;;33.76;44.13;99793.99;1748278;80;21027;-60
2021/08/12 08:39:56;;;;;;;8.08;5.15;;;;;;;34.20;43.94;99794.63;1747156;80;21006;-58
2021/08/12 08:42:24;;;;;;;8.45;4.75;;;;;;;34.60;41.83;99801.12;1749914;80;21119;-59
2021/08/12 08:44:52;;;;;;;6.95;4.85;;;;;;;34.96;40.34;99788.26;1749405;80;48579;-61
2021/08/12 08:47:18;;;;;;;12.65;5.47;;;;;;;35.26;39.13;99780.89;1750356;80;21010;-63
2021/08/12 08:49:46;;;;;;;6.80;4.60;;;;;;;35.40;39.10;99783.07;1754432;80;21134;-61
2021/08/12 08:52:13;;;;;;;11.12;5.58;;;;;;;35.34;37.81;99783.93;1756235;80;21512;-60
2021/08/12 08:54:42;;;;;;;8.03;4.80;;;;;;;35.15;38.50;99779.34;1714353;81;20996;-62
2021/08/12 08:57:08;;;;;;;10.28;4.50;;;;;;;34.95;38.72;99782.64;1753039;81;21050;-63
2021/08/12 08:59:36;;;;;;;9.85;4.53;;;;;;;34.87;38.82;99782.30;1745897;81;21587;-61
2021/08/12 09:02:08;;;;;;;9.58;4.55;;;;;;;34.85;37.99;99780.50;1707194;82;21184;-62
2021/08/12 09:04:36;;;;;;;8.38;5.12;;;;;;;34.72;38.31;99777.75;1702824;82;21034;-61
2021/08/12 09:07:05;;;;;;;10.85;5.25;;;;;;;34.57;38.58;99781.52;1711569;82;20912;-62
2021/08/12 09:09:33;;;;;;;11.40;4.67;;;;;;;34.46;38.18;99777.78;1736824;82;21104;-63
2021/08/12 09:12:00;;;;;;;8.48;4.37;;;;;;;34.45;39.08;99784.34;1735315;82;22377;-62
2021/08/12 09:14:40;;;;;;;12.47;4.67;;;;;;;34.46;37.67;99775.66;1724964;81;21127;-63
2021/08/12 09:17:24;;;;;;;7.78;3.90;;;;;;;34.26;37.89;99778.91;1739212;81;20967;-60
2021/08/12 09:20:18;;;;;;;7.28;4.17;;;;;;;34.23;38.57;99783.10;1729319;81;20978;-63
2021/08/12 09:22:58;;;;;;;10.55;4.45;;;;;;;34.24;38.68;99777.12;1705555;81;21003;-63
2021/08/12 09:25:44;;;;;;;7.35;4.50;;;;;;;34.27;38.57;99788.59;1727697;81;20978;-62
2021/08/12 09:28:27;;;;;;;6.90;4.20;;;;;;;34.31;38.28;99782.11;1727632;81;21106;-63
2021/08/12 09:31:05;;;;;;;8.23;3.90;;;;;;;34.33;37.86;99789.89;1725302;81;21042;-61
2021/08/12 09:33:52;;;;;;;9.00;4.42;;;;;;;34.14;37.68;99785.23;1708822;81;20987;-61
2021/08/12 09:36:34;;;;;;;9.48;4.28;;;;;;;34.09;38.59;99782.78;1732706;81;20982;-62
2021/08/12 09:39:11;;;;;;;6.37;4.37;;;;;;;34.21;38.83;99780.52;1705732;82;21034;-60
2021/08/12 09:41:46;;;;;;;6.28;3.80;;;;;;;34.40;39.02;99781.93;1736115;81;21089;-63
2021/08/12 09:44:44;;;;;;;17.92;5.78;;;;;;;34.59;38.25;99782.53;1736813;81;20958;-62
2021/08/12 09:47:21;;;;;;;13.43;4.72;;;;;;;34.66;39.49;99788.64;1703532;81;21093;-63
2021/08/12 09:49:51;;;;;;;7.55;4.20;;;;;;;34.72;38.33;99785.30;1722462;82;21093;-62
2021/08/12 09:52:33;;;;;;;7.35;4.70;;;;;;;34.75;38.13;99783.23;1726392;82;20988;-62
2021/08/12 09:55:13;;;;;;;7.97;4.33;;;;;;;34.57;38.39;99782.09;1732237;82;22242;-60
2021/08/12 09:57:54;;;;;;;12.00;4.78;;;;;;;34.48;39.33;99778.22;1734104;82;20989;-64
2021/08/12 10:00:31;;;;;;;;;;;;;;;34.69;40.28;99787.36;1739981;82;20984;-62
2021/08/12 10:03:00;;;;;;;6.92;3.80;;;;;;;34.79;38.06;99786.80;1738610;81;20234;-63
2021/08/12 10:05:29;;;;;;;9.33;4.42;;;;;;;34.84;37.75;99783.00;1743334;81;21081;-62
2021/08/12 10:07:56;;;;;;;8.80;4.95;;;;;;;34.88;37.58;99790.63;1747720;82;21158;-63
2021/08/12 10:10:27;;;;;;;6.33;4.12;;;;;;;34.89;37.61;99788.13;1746372;80;21057;-60
2021/08/12 10:12:57;;;;;;;7.58;4.08;;;;;;;34.92;37.86;99792.83;1747271;82;21492;-60
2021/08/12 10:15:31;;;;;;;6.22;3.67;;;;;;;34.94;37.49;99786.50;1748316;82;21013;-63
2021/08/12 10:18:02;;;;;;;9.00;4.83;;;;;;;34.99;37.54;99790.28;1747647;82;21017;-61
2021/08/12 10:20:33;;;;;;;7.00;4.17;;;;;;;35.05;37.71;99789.44;1745295;82;21469;-60
2021/08/12 10:23:06;;;;;;;9.35;4.83;;;;;;;35.01;37.68;99785.31;1735126;80;21053;-62
2021/08/12 10:25:34;;;;;;;7.85;4.72;;;;;;;35.07;38.69;99792.55;1742933;82;21239;-59
2021/08/12 10:28:03;;;;;;;6.03;4.10;;;;;;;35.20;38.22;99794.55;1746557;80;21293;-62
2021/08/12 10:30:29;;;;;;;9.48;5.47;;;;;;;35.34;37.39;99801.55;1744243;80;22125;-62
2021/08/12 10:33:01;;;;;;;9.30;4.30;;;;;;;35.45;37.69;99803.09;1737289;80;21425;-62
2021/08/12 10:35:30;;;;;;;7.87;4.70;;;;;;;35.45;37.14;99798.44;1740930;80;20939;-61
2021/08/12 10:37:58;;;;;;;10.40;4.40;;;;;;;35.42;37.18;99804.61;1734116;80;20974;-61
2021/08/12 10:40:34;;;;;;;6.85;4.25;;;;;;;35.44;37.54;99803.66;1741921;80;20939;-61
2021/08/12 10:43:01;;;;;;;11.45;4.30;;;;;;;35.43;36.41;99799.39;1735940;80;21077;-63
2021/08/12 10:45:29;;;;;;;11.65;4.78;;;;;;;35.46;37.37;99802.74;1745535;80;20974;-59
2021/08/12 10:48:01;;;;;;;8.33;4.40;;;;;;;35.54;36.74;99810.45;1748594;80;21590;-59
2021/08/12 10:50:37;;;;;;;10.25;4.72;;;;;;;35.57;37.55;99805.63;1749206;80;21119;-61
2021/08/12 10:53:12;;;;;;;9.93;5.05;;;;;;;35.64;36.96;99809.82;1750821;80;21140;-61
2021/08/12 10:55:45;;;;;;;7.25;3.98;;;;;;;35.57;36.42;99806.98;1748064;80;20966;-60
2021/08/12 10:58:28;;;;;;;7.60;4.12;;;;;;;35.47;36.28;99807.59;1749680;80;21080;-61
2021/08/12 11:01:07;;;;;;;6.90;4.42;;;;;;;35.41;36.43;99810.37;1752932;80;21057;-62
2021/08/12 11:03:43;;;;;;;8.35;4.40;;;;;;;35.37;36.56;99812.24;1748096;80;21030;-63
2021/08/12 11:06:20;;;;;;;7.60;4.12;;;;;;;35.26;36.34;99816.12;1739453;80;21071;-62
2021/08/12 11:08:54;;;;;;;9.50;4.43;;;;;;;35.15;36.39;99823.27;1734141;82;20938;-63
2021/08/12 11:11:29;;;;;;;6.83;4.47;;;;;;;35.01;37.29;99826.52;1746734;82;21778;-63
2021/08/12 11:14:03;;;;;;;7.97;4.92;;;;;;;34.92;37.40;99830.74;1747300;82;20922;-63
2021/08/12 11:16:48;;;;;;;8.18;4.25;;;;;;;34.89;37.35;99832.80;1749648;80;21017;-63
2021/08/12 11:19:28;;;;;;;10.70;4.25;;;;;;;34.71;37.61;99827.63;1749397;80;20946;-63
2021/08/12 11:21:55;;;;;;;9.63;4.35;;;;;;;34.65;38.55;99835.81;1745454;82;21097;-61
2021/08/12 11:24:28;;;;;;;7.80;4.25;;;;;;;34.59;37.44;99836.67;1746104;82;21144;-64
2021/08/12 11:27:04;;;;;;;10.43;4.62;;;;;;;34.47;37.18;99834.82;1739655;81;20942;-63
2021/08/12 11:29:32;;;;;;;6.35;4.20;;;;;;;34.30;37.30;99836.59;1744916;82;21069;-63
2021/08/12 11:32:03;;;;;;;8.53;4.85;;;;;;;34.12;37.26;99843.72;1744631;82;21053;-61
2021/08/12 11:34:55;;;;;;;9.00;4.03;;;;;;;34.01;37.39;99844.05;1747586;81;21453;-61